Terminal Aerodrome Forecast
Issued by NWS Nashville, TN

Home | Current Version | Previous Version | Text Only | Print | Product List | Glossary On
Versions: 1 2 3 4 5 6 7 8 9 10 11 12 13 14 15 16 17 18 19 20 21
000
FTUS44 KOHX 021700
TAFCSV
TAF
KCSV 021720Z 0218/0318 24008KT P6SM SCT025 BKN250
      TEMPO 0220/0224 VRB15G30KT 2SM TSRA OVC025CB
     FM030000 26002KT P6SM SCT035 BKN120
     FM030700 00000KT 4SM BR SKC
      TEMPO 0310/0312 2SM BR
     FM031300 VRB02KT P6SM SCT015=

USA.gov is the U.S. government's official web portal to all federal, state and local government web resources and services.